Time;durP1;ratioP1;P1;durP2;ratioP2;P2;SDS_P1;SDS_P2;PMS_P1;PMS_P2;Temp;Humidity;BMP_temperature;BMP_pressure;BME280_temperature;BME280_humidity;BME280_pressure;Samples;Min_cycle;Max_cycle;Signal;HPM_P1;HPM_P2
2022/08/06 00:02:20;;;;;;;0.30;0.30;;;17.80;99.90;;;;;;4384645;32;20434;-74
2022/08/06 00:04:47;;;;;;;0.30;0.30;;;17.80;99.90;;;;;;4385784;32;20126;-73
2022/08/06 00:07:13;;;;;;;0.30;0.30;;;17.70;99.90;;;;;;4384694;32;20071;-74
2022/08/06 00:09:38;;;;;;;0.30;0.30;;;17.60;99.90;;;;;;4391781;32;20154;-73
2022/08/06 00:12:05;;;;;;;0.20;0.20;;;17.50;99.90;;;;;;4400081;32;20122;-73
2022/08/06 00:14:31;;;;;;;0.40;0.40;;;17.50;99.90;;;;;;4400987;32;20066;-73
2022/08/06 00:16:58;;;;;;;0.40;0.40;;;17.40;99.90;;;;;;4400283;32;20505;-73
2022/08/06 00:19:24;;;;;;;1.20;0.93;;;17.40;99.90;;;;;;4400492;32;20062;-73
2022/08/06 00:21:50;;;;;;;0.20;0.20;;;17.30;99.90;;;;;;4400836;32;20127;-75
2022/08/06 00:24:16;;;;;;;1.20;0.98;;;17.30;99.90;;;;;;4387060;32;20070;-73
2022/08/06 00:26:42;;;;;;;0.65;0.65;;;17.30;99.90;;;;;;4399622;32;20061;-73
2022/08/06 00:29:07;;;;;;;0.30;0.30;;;17.20;99.90;;;;;;4399971;32;20082;-74
2022/08/06 00:31:33;;;;;;;0.30;0.30;;;17.30;99.90;;;;;;4399546;32;20509;-73
2022/08/06 00:34:02;;;;;;;0.30;0.30;;;17.30;99.90;;;;;;4400593;32;20058;-73
2022/08/06 00:36:28;;;;;;;0.32;0.32;;;17.20;99.90;;;;;;4398992;32;20237;-73
2022/08/06 00:38:55;;;;;;;0.40;0.40;;;17.20;99.90;;;;;;4400141;32;20067;-72
2022/08/06 00:41:21;;;;;;;1.52;0.40;;;17.20;99.90;;;;;;4400483;32;20915;-73
2022/08/06 00:43:48;;;;;;;0.20;0.20;;;17.30;99.90;;;;;;4399587;32;20066;-73
2022/08/06 00:46:13;;;;;;;0.30;0.30;;;17.10;99.90;;;;;;4400631;32;20074;-73
2022/08/06 00:48:39;;;;;;;0.95;0.30;;;17.10;99.90;;;;;;4401163;32;20121;-73
2022/08/06 00:51:04;;;;;;;0.30;0.30;;;17.00;99.90;;;;;;4414938;32;20065;-74
2022/08/06 00:53:30;;;;;;;0.70;0.62;;;17.00;99.90;;;;;;4410820;32;20077;-73
2022/08/06 00:55:56;;;;;;;0.52;0.52;;;17.10;99.90;;;;;;4399264;32;20447;-73
2022/08/06 00:58:21;;;;;;;0.30;0.30;;;16.90;99.90;;;;;;4399099;32;20117;-74
2022/08/06 01:00:47;;;;;;;0.20;0.20;;;16.90;99.90;;;;;;4399653;32;20070;-73
2022/08/06 01:03:16;;;;;;;0.30;0.30;;;16.90;99.90;;;;;;4399976;32;20137;-72
2022/08/06 01:05:43;;;;;;;0.20;0.20;;;16.80;99.90;;;;;;4399335;32;20065;-73
2022/08/06 01:08:10;;;;;;;0.32;0.32;;;16.90;99.90;;;;;;4398773;32;20440;-73
2022/08/06 01:10:35;;;;;;;1.00;0.73;;;16.80;99.90;;;;;;4399983;32;20069;-74
2022/08/06 01:13:01;;;;;;;0.20;0.20;;;16.70;99.90;;;;;;4399187;32;20085;-73
2022/08/06 01:15:27;;;;;;;0.20;0.20;;;16.70;99.90;;;;;;4399820;32;20480;-74
2022/08/06 01:18:00;;;;;;;0.20;0.20;;;16.70;99.90;;;;;;4399102;32;20506;-74
2022/08/06 01:20:39;;;;;;;0.40;0.40;;;16.70;99.90;;;;;;4399254;32;20073;-74
2022/08/06 01:23:22;;;;;;;0.30;0.30;;;16.60;99.90;;;;;;4397626;32;20594;-72
2022/08/06 01:26:28;;;;;;;0.50;0.50;;;16.60;99.90;;;;;;4399978;32;20078;-73
2022/08/06 01:29:01;;;;;;;0.20;0.20;;;16.60;99.90;;;;;;4389788;32;20533;-73
2022/08/06 01:31:34;;;;;;;0.30;0.30;;;16.70;99.90;;;;;;4399258;32;20138;-73
2022/08/06 01:34:07;;;;;;;0.40;0.40;;;16.70;99.90;;;;;;4398889;32;20078;-73
2022/08/06 01:36:42;;;;;;;0.20;0.20;;;16.60;99.90;;;;;;4398521;32;20519;-73
2022/08/06 01:39:10;;;;;;;1.00;0.40;;;16.50;99.90;;;;;;4398889;32;20135;-73
2022/08/06 01:41:43;;;;;;;0.30;0.30;;;16.40;99.90;;;;;;4398995;32;20420;-73
2022/08/06 01:44:14;;;;;;;0.40;0.40;;;16.40;99.90;;;;;;4398534;32;20066;-73
2022/08/06 01:46:44;;;;;;;0.30;0.30;;;16.40;99.90;;;;;;4398918;32;20089;-73
2022/08/06 01:49:11;;;;;;;0.40;0.40;;;16.30;99.90;;;;;;4398969;32;20509;-73
2022/08/06 01:51:38;;;;;;;0.30;0.30;;;16.40;99.90;;;;;;4398685;32;20070;-73
2022/08/06 01:54:06;;;;;;;0.20;0.20;;;16.30;99.90;;;;;;4398087;32;20116;-73
2022/08/06 01:56:36;;;;;;;0.30;0.30;;;16.20;99.90;;;;;;4404986;32;20078;-74
2022/08/06 01:59:05;;;;;;;0.40;0.40;;;16.10;99.90;;;;;;4402919;32;20129;-73
2022/08/06 02:01:34;;;;;;;0.40;0.40;;;16.30;99.90;;;;;;4383971;32;20083;-74
2022/08/06 02:04:01;;;;;;;0.40;0.40;;;16.20;99.90;;;;;;4385936;32;20070;-73
2022/08/06 02:06:33;;;;;;;0.30;0.30;;;16.10;99.90;;;;;;4393429;32;20128;-72
2022/08/06 02:09:03;;;;;;;0.40;0.40;;;16.00;99.90;;;;;;4398540;32;20058;-72
2022/08/06 02:11:29;;;;;;;0.20;0.20;;;16.00;99.90;;;;;;4398550;32;20085;-72
2022/08/06 02:13:57;;;;;;;0.20;0.20;;;16.10;99.90;;;;;;4398891;32;20062;-72
2022/08/06 02:16:24;;;;;;;0.30;0.30;;;16.00;99.90;;;;;;4398630;32;20127;-72
2022/08/06 02:18:51;;;;;;;0.30;0.30;;;16.10;99.90;;;;;;4398156;32;20135;-72
2022/08/06 02:21:19;;;;;;;0.20;0.20;;;15.90;99.90;;;;;;4398228;32;20070;-72
2022/08/06 02:23:45;;;;;;;0.30;0.30;;;15.90;99.90;;;;;;4397793;32;20537;-72
2022/08/06 02:26:12;;;;;;;0.20;0.20;;;15.80;99.90;;;;;;4398268;32;20066;-74
2022/08/06 02:28:41;;;;;;;5.30;0.62;;;15.80;99.90;;;;;;4399238;32;20136;-72
2022/08/06 02:31:06;;;;;;;0.30;0.30;;;15.80;99.90;;;;;;4398264;32;20077;-72
2022/08/06 02:33:32;;;;;;;0.20;0.20;;;15.90;99.90;;;;;;4399739;32;20073;-72
2022/08/06 02:36:13;;;;;;;0.20;0.20;;;15.90;99.90;;;;;;4397571;32;20454;-72
2022/08/06 02:38:49;;;;;;;0.30;0.30;;;16.00;99.90;;;;;;4398390;32;20478;-72
2022/08/06 02:41:37;;;;;;;0.30;0.30;;;15.90;99.90;;;;;;4399069;32;20439;-73
2022/08/06 02:44:32;;;;;;;0.20;0.20;;;15.80;99.90;;;;;;4398218;32;20513;-72
2022/08/06 02:47:04;;;;;;;0.20;0.20;;;15.70;99.90;;;;;;4388008;32;20416;-72
2022/08/06 02:49:36;;;;;;;0.30;0.30;;;15.60;99.90;;;;;;4397581;32;20542;-72
2022/08/06 02:52:09;;;;;;;0.20;0.20;;;15.50;99.90;;;;;;4399622;32;20121;-72
2022/08/06 02:54:38;;;;;;;0.30;0.30;;;15.40;99.90;;;;;;4398879;32;20125;-72
2022/08/06 02:57:07;;;;;;;0.20;0.20;;;15.50;99.90;;;;;;4413189;32;20460;-71
2022/08/06 02:59:38;;;;;;;0.28;0.28;;;15.40;99.90;;;;;;4412726;32;20066;-72
2022/08/06 03:02:09;;;;;;;0.30;0.30;;;15.40;99.90;;;;;;4384614;32;20074;-72
2022/08/06 03:04:40;;;;;;;0.40;0.40;;;15.50;99.90;;;;;;4387822;32;20074;-72
2022/08/06 03:07:08;;;;;;;0.20;0.20;;;15.50;99.90;;;;;;4397594;32;20078;-73
2022/08/06 03:09:36;;;;;;;0.77;0.60;;;15.50;99.90;;;;;;4397701;32;20078;-73
2022/08/06 03:12:02;;;;;;;0.60;0.28;;;15.50;99.90;;;;;;4397625;32;20183;-72
2022/08/06 03:14:30;;;;;;;0.30;0.30;;;15.40;99.90;;;;;;4397713;32;20069;-72
2022/08/06 03:16:57;;;;;;;0.30;0.30;;;15.50;99.90;;;;;;4397888;32;20117;-73
2022/08/06 03:19:23;;;;;;;0.20;0.20;;;15.30;99.90;;;;;;4397407;32;20109;-72
2022/08/06 03:21:51;;;;;;;0.20;0.20;;;15.40;99.90;;;;;;4397667;32;20093;-72
2022/08/06 03:24:18;;;;;;;0.20;0.20;;;15.20;99.90;;;;;;4397915;32;20082;-72
2022/08/06 03:26:45;;;;;;;0.20;0.20;;;15.20;99.90;;;;;;4398086;32;20073;-72
2022/08/06 03:29:11;;;;;;;0.30;0.30;;;15.20;99.90;;;;;;4397631;32;20428;-72
2022/08/06 03:31:37;;;;;;;0.28;0.28;;;15.10;99.90;;;;;;4397556;32;20081;-73
2022/08/06 03:34:05;;;;;;;0.30;0.30;;;15.00;99.90;;;;;;4397451;32;20070;-72
2022/08/06 03:36:31;;;;;;;0.30;0.30;;;15.00;99.90;;;;;;4399872;32;20069;-73
2022/08/06 03:39:02;;;;;;;0.20;0.20;;;15.10;99.90;;;;;;4400318;32;20084;-72
2022/08/06 03:41:29;;;;;;;;;;;15.20;99.90;;;;;;4400420;32;20065;-73
2022/08/06 03:43:54;;;;;;;0.20;0.20;;;15.10;99.90;;;;;;4401322;32;20007;-72
2022/08/06 03:46:25;;;;;;;0.60;0.60;;;15.10;99.90;;;;;;4399736;32;20074;-72
2022/08/06 03:48:53;;;;;;;0.40;0.40;;;15.10;99.90;;;;;;4400389;32;20498;-73
2022/08/06 03:51:21;;;;;;;0.37;0.37;;;15.20;99.90;;;;;;4399813;32;20539;-73
2022/08/06 03:53:48;;;;;;;0.47;0.47;;;15.10;99.90;;;;;;4408727;32;20098;-73
2022/08/06 03:56:18;;;;;;;3.10;1.08;;;15.00;99.90;;;;;;4414820;32;20054;-73
2022/08/06 03:58:45;;;;;;;13.13;0.55;;;15.10;99.90;;;;;;4415099;32;20129;-73
2022/08/06 04:01:15;;;;;;;0.77;0.65;;;15.00;99.90;;;;;;4406390;32;20086;-73
2022/08/06 04:03:41;;;;;;;1.02;1.02;;;15.00;99.90;;;;;;4400205;32;20400;-73
2022/08/06 04:06:10;;;;;;;0.40;0.40;;;15.00;99.90;;;;;;4399212;32;20091;-73
2022/08/06 04:08:36;;;;;;;0.50;0.50;;;15.00;99.90;;;;;;4399815;32;20518;-73
2022/08/06 04:11:03;;;;;;;0.65;0.60;;;15.00;99.90;;;;;;4400901;32;20089;-73
2022/08/06 04:13:28;;;;;;;0.45;0.45;;;15.10;99.90;;;;;;4399997;32;20061;-73
2022/08/06 04:15:56;;;;;;;0.85;0.85;;;14.90;99.90;;;;;;4399745;32;20066;-73
2022/08/06 04:18:26;;;;;;;0.80;0.75;;;14.90;99.90;;;;;;4400061;32;20479;-73
2022/08/06 04:20:55;;;;;;;0.50;0.50;;;14.90;99.90;;;;;;4400166;32;20069;-73
2022/08/06 04:23:21;;;;;;;7.10;0.73;;;14.90;99.90;;;;;;4400004;32;20062;-73
2022/08/06 04:25:53;;;;;;;0.68;0.62;;;15.00;99.90;;;;;;4399634;32;20086;-73
2022/08/06 04:28:20;;;;;;;4.15;0.85;;;15.10;99.90;;;;;;4399311;32;20128;-73
2022/08/06 04:30:47;;;;;;;0.95;0.88;;;15.10;99.90;;;;;;4400158;32;20062;-73
2022/08/06 04:33:18;;;;;;;0.40;0.40;;;15.10;99.90;;;;;;4400932;32;20058;-73
2022/08/06 04:35:44;;;;;;;0.45;0.45;;;15.00;99.90;;;;;;4399757;32;20058;-74
2022/08/06 04:38:10;;;;;;;1.02;0.88;;;15.00;99.90;;;;;;4399403;32;20083;-73
2022/08/06 04:40:37;;;;;;;2.28;0.68;;;14.90;99.90;;;;;;4401257;32;20054;-73
2022/08/06 04:43:05;;;;;;;3.40;0.73;;;15.00;99.90;;;;;;4399672;32;20556;-72
2022/08/06 04:45:32;;;;;;;0.90;0.80;;;15.00;99.90;;;;;;4408131;32;20136;-74
2022/08/06 04:47:59;;;;;;;0.60;0.60;;;15.10;99.90;;;;;;4399320;32;20101;-73
2022/08/06 04:50:24;;;;;;;0.60;0.60;;;15.10;99.90;;;;;;4397845;32;87255;-73
2022/08/06 04:52:50;;;;;;;1.35;1.25;;;15.20;99.90;;;;;;4401793;32;20089;-73
2022/08/06 04:55:22;;;;;;;0.70;0.70;;;15.10;99.90;;;;;;4414786;32;20089;-73
2022/08/06 04:57:48;;;;;;;2.62;0.90;;;15.10;99.90;;;;;;4402080;32;20534;-73
2022/08/06 05:00:14;;;;;;;1.27;1.02;;;15.20;99.90;;;;;;4396135;32;20075;-73
2022/08/06 05:02:39;;;;;;;0.40;0.40;;;15.20;99.90;;;;;;4384742;32;20400;-73
2022/08/06 05:05:09;;;;;;;0.40;0.40;;;15.00;99.90;;;;;;4384246;32;20062;-73
2022/08/06 05:07:35;;;;;;;2.10;0.73;;;15.10;99.90;;;;;;4383771;32;20066;-73
2022/08/06 05:10:01;;;;;;;0.95;0.95;;;15.00;99.90;;;;;;4384230;32;20558;-74
2022/08/06 05:12:38;;;;;;;0.37;0.37;;;15.00;99.90;;;;;;4395883;32;20062;-73
2022/08/06 05:15:16;;;;;;;0.50;0.50;;;14.90;99.90;;;;;;4399258;32;20091;-73
2022/08/06 05:17:48;;;;;;;0.45;0.40;;;14.90;99.90;;;;;;4399323;32;20086;-74
2022/08/06 05:20:17;;;;;;;2.22;1.35;;;15.00;99.90;;;;;;4399072;32;20075;-74
2022/08/06 05:22:47;;;;;;;0.40;0.40;;;14.90;99.90;;;;;;4398717;32;20057;-74
2022/08/06 05:25:12;;;;;;;1.70;1.12;;;14.90;99.90;;;;;;4398969;32;20090;-74
2022/08/06 05:27:40;;;;;;;2.28;0.73;;;14.90;99.90;;;;;;4399287;32;20058;-74
2022/08/06 05:30:07;;;;;;;1.23;0.85;;;15.00;99.90;;;;;;4399073;32;20069;-74
2022/08/06 05:32:49;;;;;;;1.62;0.88;;;14.90;99.90;;;;;;4392144;32;20058;-73
2022/08/06 05:35:15;;;;;;;0.47;0.47;;;14.90;99.90;;;;;;4382748;32;20075;-74
2022/08/06 05:37:40;;;;;;;4.28;0.77;;;15.10;99.90;;;;;;4383574;32;20066;-73
2022/08/06 05:40:07;;;;;;;0.52;0.50;;;15.10;99.90;;;;;;4395063;32;20058;-73
2022/08/06 05:42:33;;;;;;;0.93;0.93;;;15.10;99.90;;;;;;4398903;32;20108;-73
2022/08/06 05:44:59;;;;;;;0.47;0.47;;;15.00;99.90;;;;;;4399412;32;20086;-74
2022/08/06 05:47:28;;;;;;;0.75;0.50;;;15.10;99.90;;;;;;4399006;32;20061;-73
2022/08/06 05:50:04;;;;;;;0.70;0.70;;;15.20;99.90;;;;;;4401157;32;20054;-73
2022/08/06 05:52:36;;;;;;;1.25;1.15;;;15.20;99.90;;;;;;4402177;32;20082;-73
2022/08/06 05:55:08;;;;;;;2.72;0.70;;;15.20;99.90;;;;;;4399037;32;20075;-73
2022/08/06 05:57:40;;;;;;;17.87;1.87;;;15.30;99.90;;;;;;4399931;32;20430;-72
2022/08/06 06:00:11;;;;;;;0.30;0.30;;;15.40;99.90;;;;;;4397499;32;20078;-73
2022/08/06 06:02:42;;;;;;;0.20;0.20;;;15.60;99.90;;;;;;4391046;32;20066;-72
2022/08/06 06:05:08;;;;;;;0.40;0.40;;;15.50;99.90;;;;;;4383491;32;20065;-72
2022/08/06 06:07:35;;;;;;;0.30;0.30;;;15.60;99.90;;;;;;4398764;32;20065;-72
2022/08/06 06:10:03;;;;;;;0.30;0.30;;;15.70;99.90;;;;;;4399176;32;20069;-72
2022/08/06 06:12:30;;;;;;;0.20;0.20;;;15.80;99.90;;;;;;4398786;32;20502;-73
2022/08/06 06:14:56;;;;;;;2.03;0.30;;;15.90;99.90;;;;;;4398662;32;20512;-73
2022/08/06 06:17:33;;;;;;;0.40;0.40;;;15.90;99.90;;;;;;4398854;32;20124;-73
2022/08/06 06:20:27;;;;;;;0.40;0.40;;;16.00;99.90;;;;;;4398469;32;20512;-73
2022/08/06 06:23:19;;;;;;;0.40;0.40;;;16.10;99.90;;;;;;4397281;32;20129;-73
2022/08/06 06:26:12;;;;;;;0.52;0.40;;;16.20;99.90;;;;;;4397311;32;20109;-73
2022/08/06 06:28:49;;;;;;;0.37;0.37;;;16.10;99.90;;;;;;4398467;32;20482;-73
2022/08/06 06:31:28;;;;;;;0.30;0.30;;;16.20;99.90;;;;;;4398700;32;20150;-73
2022/08/06 06:34:15;;;;;;;0.30;0.30;;;16.30;99.90;;;;;;4383003;32;20066;-73
2022/08/06 06:37:01;;;;;;;0.28;0.28;;;16.30;99.90;;;;;;4385579;32;20062;-73
2022/08/06 06:39:41;;;;;;;0.30;0.30;;;16.40;99.90;;;;;;4398272;32;20082;-73
2022/08/06 06:42:12;;;;;;;0.25;0.25;;;16.30;99.90;;;;;;4397752;32;20074;-72
2022/08/06 06:44:44;;;;;;;0.30;0.30;;;16.50;99.90;;;;;;4398159;32;20506;-72
2022/08/06 06:47:18;;;;;;;0.20;0.20;;;16.60;99.90;;;;;;4398027;32;20127;-72
2022/08/06 06:49:51;;;;;;;0.32;0.32;;;16.60;99.90;;;;;;4398363;32;20066;-73
2022/08/06 06:52:24;;;;;;;0.28;0.28;;;16.70;99.90;;;;;;4398331;32;20085;-73
2022/08/06 06:54:57;;;;;;;0.20;0.20;;;16.80;99.90;;;;;;4397979;32;20497;-73
2022/08/06 06:57:32;;;;;;;0.60;0.60;;;16.80;99.90;;;;;;4398048;32;20074;-73
2022/08/06 07:00:02;;;;;;;0.30;0.30;;;16.80;99.90;;;;;;4397267;32;20074;-73
2022/08/06 07:02:32;;;;;;;0.30;0.30;;;16.90;99.90;;;;;;4398829;32;20085;-72
2022/08/06 07:05:02;;;;;;;0.30;0.30;;;17.10;99.90;;;;;;4386020;32;20082;-74
2022/08/06 07:07:32;;;;;;;0.40;0.40;;;17.20;99.90;;;;;;4382774;32;20062;-73
2022/08/06 07:10:00;;;;;;;0.20;0.20;;;17.30;99.90;;;;;;4382920;32;20537;-72
2022/08/06 07:12:30;;;;;;;0.40;0.40;;;17.30;99.90;;;;;;4390837;32;20066;-72
2022/08/06 07:14:57;;;;;;;0.30;0.30;;;17.40;99.90;;;;;;4400528;32;20144;-72
2022/08/06 07:17:24;;;;;;;0.37;0.37;;;17.60;99.90;;;;;;4401791;32;20138;-73
2022/08/06 07:19:57;;;;;;;0.45;0.45;;;17.60;99.90;;;;;;4401056;32;20494;-73
2022/08/06 07:22:24;;;;;;;0.65;0.65;;;17.70;99.90;;;;;;4400682;32;20069;-73
2022/08/06 07:24:53;;;;;;;0.20;0.20;;;17.70;99.90;;;;;;4400935;32;20077;-73
2022/08/06 07:27:20;;;;;;;0.30;0.30;;;17.80;99.90;;;;;;4400917;32;20069;-72
2022/08/06 07:29:46;;;;;;;0.32;0.32;;;17.90;99.90;;;;;;4401132;32;20127;-72
2022/08/06 07:32:12;;;;;;;0.30;0.30;;;18.00;99.90;;;;;;4400452;32;20380;-73
2022/08/06 07:34:39;;;;;;;0.30;0.30;;;18.10;99.90;;;;;;4400532;32;20065;-72
2022/08/06 07:37:06;;;;;;;0.20;0.20;;;18.20;99.90;;;;;;4401615;32;20529;-73
2022/08/06 07:39:35;;;;;;;0.30;0.30;;;18.30;99.90;;;;;;4401190;32;20078;-73
2022/08/06 07:42:07;;;;;;;0.25;0.25;;;18.30;99.90;;;;;;4385973;32;20078;-72
2022/08/06 07:44:36;;;;;;;0.30;0.30;;;18.40;99.90;;;;;;4400233;32;20103;-73
2022/08/06 07:47:04;;;;;;;0.30;0.30;;;18.50;99.90;;;;;;4399869;32;20163;-73
2022/08/06 07:49:36;;;;;;;0.45;0.45;;;18.60;99.90;;;;;;4400034;32;20066;-74
2022/08/06 07:52:03;;;;;;;0.20;0.20;;;18.90;99.90;;;;;;4400123;32;20086;-72
2022/08/06 07:54:30;;;;;;;0.20;0.20;;;18.90;99.90;;;;;;4401219;32;20078;-72
2022/08/06 07:56:57;;;;;;;0.20;0.20;;;19.10;99.90;;;;;;4400155;32;20118;-72
2022/08/06 07:59:23;;;;;;;0.85;0.65;;;19.40;99.90;;;;;;4400009;32;20091;-72
2022/08/06 08:01:49;;;;;;;0.20;0.20;;;19.40;99.80;;;;;;4399788;32;20078;-72
2022/08/06 08:06:18;;;;;;;0.30;0.30;;;19.40;99.90;;;;;;4392126;32;20078;-73
2022/08/06 08:07:03;;;;;;;0.20;0.20;;;19.50;99.90;;;;;;4388131;32;20534;-73
2022/08/06 08:09:30;;;;;;;0.20;0.20;;;19.50;99.90;;;;;;4385625;32;20070;-73
2022/08/06 08:11:56;;;;;;;0.25;0.25;;;19.60;99.90;;;;;;4384965;32;20574;-73
2022/08/06 08:14:23;;;;;;;0.20;0.20;;;19.40;99.90;;;;;;4392744;32;20454;-73
2022/08/06 08:16:49;;;;;;;0.30;0.30;;;19.60;99.90;;;;;;4399872;32;20124;-73
2022/08/06 08:19:30;;;;;;;0.43;0.43;;;19.60;99.90;;;;;;4400348;32;20083;-72
2022/08/06 08:21:57;;;;;;;;;;;19.60;98.70;;;;;;4399499;32;20407;-73
2022/08/06 08:24:23;;;;;;;0.20;0.20;;;19.30;98.80;;;;;;4399464;32;19950;-72
2022/08/06 08:26:49;;;;;;;0.30;0.30;;;19.00;99.50;;;;;;4400549;32;20571;-73
2022/08/06 08:29:15;;;;;;;0.22;0.22;;;19.10;99.90;;;;;;4400172;32;20066;-73
2022/08/06 08:31:41;;;;;;;0.37;0.37;;;19.20;99.50;;;;;;4399656;32;20054;-73
2022/08/06 08:34:06;;;;;;;0.30;0.30;;;19.40;99.00;;;;;;4400488;32;20115;-73
2022/08/06 08:36:32;;;;;;;0.30;0.30;;;19.60;98.40;;;;;;4398890;32;20061;-73
2022/08/06 08:38:58;;;;;;;0.20;0.20;;;19.90;98.20;;;;;;4399196;32;20062;-73
2022/08/06 08:41:27;;;;;;;0.20;0.20;;;20.20;97.90;;;;;;4399485;32;20418;-73
2022/08/06 08:43:59;;;;;;;0.30;0.30;;;20.30;97.40;;;;;;4399398;32;20546;-73
2022/08/06 08:46:26;;;;;;;0.30;0.30;;;20.40;97.50;;;;;;4399532;32;20129;-73
2022/08/06 08:48:53;;;;;;;0.28;0.28;;;20.50;97.30;;;;;;4399476;32;20167;-72
2022/08/06 08:51:19;;;;;;;0.30;0.30;;;20.50;96.90;;;;;;4399151;32;20465;-72
2022/08/06 08:53:52;;;;;;;0.22;0.22;;;20.60;96.30;;;;;;4399062;32;20062;-74
2022/08/06 08:56:18;;;;;;;0.55;0.50;;;20.40;96.50;;;;;;4399153;32;20620;-73
2022/08/06 08:58:44;;;;;;;0.20;0.20;;;20.40;95.90;;;;;;4399296;32;20086;-73
2022/08/06 09:01:10;;;;;;;0.20;0.20;;;20.50;95.40;;;;;;4399771;32;20440;-73
2022/08/06 09:03:39;;;;;;;0.20;0.20;;;20.80;95.40;;;;;;4398570;32;20070;-72
2022/08/06 09:06:05;;;;;;;0.30;0.30;;;21.00;94.50;;;;;;4399007;32;20117;-72
2022/08/06 09:08:31;;;;;;;0.20;0.20;;;21.00;94.40;;;;;;4398891;32;20089;-73
2022/08/06 09:10:58;;;;;;;0.20;0.20;;;21.30;94.10;;;;;;4399367;32;20063;-73
2022/08/06 09:13:26;;;;;;;0.10;0.10;;;20.90;94.30;;;;;;4399058;32;20124;-73
2022/08/06 09:15:52;;;;;;;0.20;0.20;;;20.70;95.00;;;;;;4399464;32;20489;-73
2022/08/06 09:18:19;;;;;;;0.20;0.20;;;20.40;94.60;;;;;;4399041;32;20078;-73
2022/08/06 09:20:45;;;;;;;0.20;0.20;;;20.20;94.60;;;;;;4401050;32;20075;-72
2022/08/06 09:23:12;;;;;;;0.30;0.30;;;20.10;94.40;;;;;;4398650;32;20066;-73
2022/08/06 09:25:40;;;;;;;0.20;0.20;;;20.20;94.20;;;;;;4399305;32;20062;-72
2022/08/06 09:28:10;;;;;;;0.30;0.30;;;20.60;94.20;;;;;;4398846;32;20087;-74
2022/08/06 09:30:36;;;;;;;;;;;21.10;93.40;;;;;;4400088;32;20081;-72
2022/08/06 09:33:02;;;;;;;0.45;0.45;;;21.30;93.30;;;;;;4398775;32;19946;-73
2022/08/06 09:35:29;;;;;;;1.85;0.37;;;21.10;93.00;;;;;;4399828;32;20058;-73
2022/08/06 09:38:04;;;;;;;0.20;0.20;;;21.30;92.70;;;;;;4399134;32;20090;-73
2022/08/06 09:40:30;;;;;;;0.80;0.57;;;21.40;92.30;;;;;;4399154;32;20086;-72
2022/08/06 09:42:56;;;;;;;0.40;0.40;;;21.70;91.60;;;;;;4400172;32;20074;-72
2022/08/06 09:45:23;;;;;;;0.30;0.30;;;21.80;91.20;;;;;;4399316;32;20136;-73
2022/08/06 09:47:59;;;;;;;0.20;0.20;;;21.70;90.90;;;;;;4398864;32;20512;-73
2022/08/06 09:50:45;;;;;;;0.28;0.28;;;21.40;91.80;;;;;;4398876;32;20427;-72
2022/08/06 09:53:13;;;;;;;0.20;0.20;;;21.60;91.00;;;;;;4388168;32;20148;-72
2022/08/06 09:55:38;;;;;;;0.20;0.20;;;21.70;90.80;;;;;;4400023;32;20435;-72
2022/08/06 09:58:04;;;;;;;0.20;0.20;;;22.20;90.50;;;;;;4398837;32;20081;-73
2022/08/06 10:00:33;;;;;;;0.20;0.20;;;22.40;89.80;;;;;;4399098;32;20078;-73
2022/08/06 10:03:00;;;;;;;0.28;0.28;;;22.60;88.40;;;;;;4398635;32;20086;-73
2022/08/06 10:05:27;;;;;;;0.20;0.20;;;22.30;88.70;;;;;;4398600;32;20466;-73
2022/08/06 10:08:10;;;;;;;0.30;0.30;;;22.20;87.90;;;;;;4399013;32;20497;-72
2022/08/06 10:10:48;;;;;;;0.22;0.22;;;22.40;87.60;;;;;;4398730;32;20067;-72
2022/08/06 10:13:24;;;;;;;0.20;0.20;;;22.40;87.30;;;;;;4399192;32;20166;-73
2022/08/06 10:15:51;;;;;;;0.20;0.20;;;22.70;87.40;;;;;;4398508;32;20070;-73
2022/08/06 10:18:43;;;;;;;0.20;0.20;;;23.00;86.20;;;;;;4398910;32;20086;-72
2022/08/06 10:21:12;;;;;;;0.32;0.32;;;23.00;84.80;;;;;;4399038;32;20082;-72
2022/08/06 10:23:40;;;;;;;0.20;0.20;;;23.50;82.30;;;;;;4397904;32;20089;-72
2022/08/06 10:26:08;;;;;;;0.22;0.22;;;23.60;83.20;;;;;;4398827;32;20365;-73
2022/08/06 10:28:35;;;;;;;0.20;0.20;;;23.80;80.70;;;;;;4398826;32;20065;-72
2022/08/06 10:31:03;;;;;;;0.10;0.10;;;23.70;80.70;;;;;;4398640;32;20498;-72
2022/08/06 10:33:34;;;;;;;0.20;0.20;;;23.80;79.60;;;;;;4398882;32;20133;-73
2022/08/06 10:36:07;;;;;;;0.17;0.17;;;23.70;79.30;;;;;;4397661;32;20070;-73
2022/08/06 10:38:35;;;;;;;0.15;0.15;;;23.90;79.20;;;;;;4399036;32;20077;-73
2022/08/06 10:41:06;;;;;;;0.20;0.20;;;24.20;78.70;;;;;;4398828;32;20075;-73
2022/08/06 10:43:36;;;;;;;0.20;0.20;;;24.30;77.90;;;;;;4398214;32;20466;-74
2022/08/06 10:46:05;;;;;;;0.20;0.20;;;23.70;78.20;;;;;;4399703;32;20494;-73
2022/08/06 10:48:32;;;;;;;0.13;0.13;;;23.30;80.20;;;;;;4401248;32;20087;-73
2022/08/06 10:50:57;;;;;;;0.20;0.20;;;23.00;81.60;;;;;;4401186;32;20070;-73
2022/08/06 10:53:23;;;;;;;0.20;0.20;;;22.60;81.70;;;;;;4401560;32;20091;-73
2022/08/06 10:55:49;;;;;;;0.20;0.20;;;22.90;82.10;;;;;;4401223;32;20074;-73
2022/08/06 10:58:16;;;;;;;0.13;0.13;;;23.60;80.30;;;;;;4401049;32;20078;-73
2022/08/06 11:00:42;;;;;;;0.47;0.43;;;24.10;77.50;;;;;;4400947;32;20121;-73
2022/08/06 11:03:17;;;;;;;0.17;0.17;;;24.20;77.80;;;;;;4400557;32;20070;-73
2022/08/06 11:05:50;;;;;;;0.10;0.10;;;24.70;76.00;;;;;;4400375;32;20530;-73
2022/08/06 11:08:32;;;;;;;0.30;0.30;;;24.60;76.20;;;;;;4401169;32;20062;-73
2022/08/06 11:11:12;;;;;;;0.10;0.10;;;24.20;75.70;;;;;;4400831;32;20130;-73
2022/08/06 11:14:06;;;;;;;0.20;0.20;;;23.70;77.70;;;;;;4400985;32;20069;-73
2022/08/06 11:16:32;;;;;;;0.40;0.40;;;23.10;78.60;;;;;;4389490;32;20082;-73
2022/08/06 11:19:01;;;;;;;0.20;0.20;;;22.90;79.60;;;;;;4400473;32;20062;-72
2022/08/06 11:21:44;;;;;;;0.20;0.20;;;23.30;80.70;;;;;;4401535;32;20120;-72
2022/08/06 11:24:12;;;;;;;0.20;0.20;;;23.60;78.20;;;;;;4387825;32;20070;-73
2022/08/06 11:26:39;;;;;;;0.13;0.13;;;23.60;78.70;;;;;;4401730;32;20070;-72
2022/08/06 11:29:07;;;;;;;0.28;0.28;;;24.10;77.80;;;;;;4400993;32;20119;-72
2022/08/06 11:31:35;;;;;;;0.17;0.17;;;24.20;75.40;;;;;;4399881;32;20070;-73
2022/08/06 11:34:05;;;;;;;0.20;0.20;;;23.80;76.50;;;;;;4400995;32;20086;-73
2022/08/06 11:36:43;;;;;;;0.10;0.10;;;23.50;77.80;;;;;;4400266;32;20535;-73
2022/08/06 11:39:09;;;;;;;0.30;0.30;;;23.10;79.30;;;;;;4401249;32;20407;-73
2022/08/06 11:41:46;;;;;;;0.20;0.20;;;22.70;78.80;;;;;;4401407;32;20074;-73
2022/08/06 11:44:15;;;;;;;0.30;0.30;;;22.60;78.00;;;;;;4400027;32;20557;-73
2022/08/06 11:46:41;;;;;;;0.25;0.20;;;23.20;76.70;;;;;;4400596;32;20074;-72
2022/08/06 11:49:24;;;;;;;0.10;0.10;;;24.00;75.30;;;;;;4400772;32;20495;-72
2022/08/06 11:51:56;;;;;;;0.00;0.00;;;24.80;73.50;;;;;;4400557;32;20450;-73
2022/08/06 11:54:51;;;;;;;0.00;0.00;;;25.60;67.70;;;;;;4400519;32;20069;-74
2022/08/06 11:57:18;;;;;;;0.10;0.10;;;25.90;68.00;;;;;;4390087;32;20086;-74
2022/08/06 12:00:01;;;;;;;0.10;0.10;;;25.70;67.40;;;;;;4400026;32;20066;-73
2022/08/06 12:02:46;;;;;;;0.10;0.10;;;25.30;69.00;;;;;;4401079;32;20529;-73
2022/08/06 12:05:15;;;;;;;0.10;0.10;;;24.90;71.30;;;;;;4400287;32;20086;-73
2022/08/06 12:07:44;;;;;;;0.10;0.10;;;24.60;72.80;;;;;;4400017;32;20138;-73
2022/08/06 12:10:12;;;;;;;0.20;0.20;;;24.70;72.60;;;;;;4400625;32;20075;-73
2022/08/06 12:12:43;;;;;;;0.93;0.40;;;24.80;71.60;;;;;;4399718;32;20082;-73
2022/08/06 12:15:15;;;;;;;0.30;0.25;;;25.10;71.80;;;;;;4400415;32;20067;-73
2022/08/06 12:17:58;;;;;;;0.20;0.20;;;24.80;72.00;;;;;;4399981;32;20095;-73
2022/08/06 12:20:34;;;;;;;0.35;0.35;;;24.40;72.60;;;;;;4400508;32;20093;-73
2022/08/06 12:23:02;;;;;;;1.27;0.80;;;24.00;74.20;;;;;;4400455;32;20062;-72
2022/08/06 12:25:33;;;;;;;0.10;0.10;;;24.60;72.90;;;;;;4399626;32;20074;-72
2022/08/06 12:27:59;;;;;;;0.22;0.22;;;24.70;71.10;;;;;;4399922;32;20087;-72
2022/08/06 12:30:25;;;;;;;0.20;0.20;;;24.70;70.10;;;;;;4399752;32;20074;-72
2022/08/06 12:33:00;;;;;;;0.10;0.10;;;25.10;70.30;;;;;;4399742;32;20121;-72
2022/08/06 12:35:26;;;;;;;0.10;0.10;;;24.80;67.30;;;;;;4399173;32;20063;-74
2022/08/06 12:37:52;;;;;;;0.10;0.10;;;25.60;67.00;;;;;;4400091;32;20537;-73
2022/08/06 12:40:26;;;;;;;0.10;0.10;;;25.80;65.90;;;;;;4400553;32;20587;-73
2022/08/06 12:43:08;;;;;;;1.12;0.20;;;25.30;66.90;;;;;;4399322;32;20125;-73
2022/08/06 12:45:33;;;;;;;0.10;0.10;;;24.90;67.90;;;;;;4399473;32;20525;-73
2022/08/06 12:48:01;;;;;;;0.10;0.10;;;24.50;69.50;;;;;;4399372;32;20141;-73
2022/08/06 12:50:27;;;;;;;0.10;0.10;;;24.10;70.10;;;;;;4399193;32;20510;-73
2022/08/06 12:53:14;;;;;;;0.10;0.10;;;24.50;69.60;;;;;;4401159;32;20062;-73
2022/08/06 12:55:50;;;;;;;0.10;0.10;;;25.80;66.10;;;;;;4388259;32;20079;-74
2022/08/06 12:58:19;;;;;;;0.00;0.00;;;26.80;64.70;;;;;;4399349;32;20133;-73
2022/08/06 13:00:50;;;;;;;0.10;0.10;;;27.10;63.40;;;;;;4399494;32;20444;-73
2022/08/06 13:03:18;;;;;;;0.52;0.32;;;26.40;63.50;;;;;;4399233;32;20062;-73